Time;durP1;ratioP1;P1;durP2;ratioP2;P2;SDS_P1;SDS_P2;PMS_P1;PMS_P2;Temp;Humidity;BMP_temperature;BMP_pressure;BME280_temperature;BME280_humidity;BME280_pressure;Samples;Min_cycle;Max_cycle;Signal;HPM_P1;HPM_P2
2021/04/20 00:02:07;;;;;;;28.75;20.17;;;;;;;7.14;75.59;101710.50;5062575;28;20052;-30
2021/04/20 00:04:33;;;;;;;31.55;21.80;;;;;;;7.13;75.17;101715.78;5064052;28;20038;-29
2021/04/20 00:06:58;;;;;;;29.15;20.92;;;;;;;7.09;75.53;101714.91;5075755;28;20124;-30
2021/04/20 00:09:23;;;;;;;27.67;20.30;;;;;;;7.04;75.43;101712.22;5073351;28;20033;-30
2021/04/20 00:11:49;;;;;;;28.35;20.60;;;;;;;7.03;75.22;101707.81;5065935;28;20459;-29
2021/04/20 00:14:14;;;;;;;30.42;21.13;;;;;;;6.97;75.06;101714.81;5068072;28;20050;-30
2021/04/20 00:16:40;;;;;;;28.42;20.73;;;;;;;6.93;74.81;101709.50;5072050;28;20035;-29
2021/04/20 00:19:06;;;;;;;29.13;20.08;;;;;;;6.80;75.03;101712.94;5082116;28;20064;-29
2021/04/20 00:21:31;;;;;;;30.52;21.42;;;;;;;6.82;75.65;101707.69;5066554;28;20076;-29
2021/04/20 00:23:56;;;;;;;30.70;22.00;;;;;;;6.85;75.52;101705.94;5073607;28;20121;-29
2021/04/20 00:26:22;;;;;;;32.47;22.40;;;;;;;6.85;75.13;101700.66;5065720;28;20114;-30
2021/04/20 00:28:47;;;;;;;29.90;20.73;;;;;;;6.76;75.60;101700.59;5064006;28;20199;-29
2021/04/20 00:31:12;;;;;;;32.55;21.95;;;;;;;6.80;75.32;101705.91;5070210;28;20075;-29
2021/04/20 00:33:39;;;;;;;31.70;22.38;;;;;;;6.76;75.46;101700.59;5071306;28;20028;-29
2021/04/20 00:36:05;;;;;;;32.28;21.25;;;;;;;6.79;75.62;101698.88;5063563;28;20161;-30
2021/04/20 00:38:30;;;;;;;31.00;21.13;;;;;;;6.80;74.84;101691.78;5079527;28;20016;-29
2021/04/20 00:41:03;;;;;;;33.47;22.63;;;;;;;6.79;75.14;101693.56;5078756;28;20040;-29
2021/04/20 00:43:41;;;;;;;37.92;25.05;;;;;;;6.69;75.36;101692.63;5081628;28;20031;-30
2021/04/20 00:46:14;;;;;;;33.63;22.92;;;;;;;6.70;75.29;101693.53;5060618;28;20071;-30
2021/04/20 00:48:39;;;;;;;33.22;23.70;;;;;;;6.62;75.28;101687.28;5067829;28;20021;-30
2021/04/20 00:51:05;;;;;;;34.17;24.08;;;;;;;6.62;75.07;101685.53;5060829;28;20036;-29
2021/04/20 00:53:30;;;;;;;32.95;23.05;;;;;;;6.59;75.22;101684.63;5077059;28;20024;-29
2021/04/20 00:55:56;;;;;;;35.65;23.40;;;;;;;6.56;75.38;101688.16;5072589;28;20031;-29
2021/04/20 00:58:21;;;;;;;33.75;22.77;;;;;;;6.50;75.30;101693.38;5069491;28;20489;-29
2021/04/20 01:00:47;;;;;;;33.58;23.15;;;;;;;6.49;74.98;101687.22;5070410;28;20104;-29
2021/04/20 01:03:12;;;;;;;34.35;23.60;;;;;;;6.43;75.20;101689.81;5060803;28;20040;-30
2021/04/20 01:05:38;;;;;;;38.92;25.67;;;;;;;6.51;75.50;101689.84;5065948;28;20036;-30
2021/04/20 01:08:05;;;;;;;38.42;25.63;;;;;;;6.54;75.32;101684.59;5074340;28;20038;-29
2021/04/20 01:10:46;;;;;;;45.45;28.73;;;;;;;6.50;75.89;101683.72;5071229;28;20155;-29
2021/04/20 01:13:11;;;;;;;39.42;26.83;;;;;;;6.44;75.70;101683.66;5055219;28;20086;-30
2021/04/20 01:15:37;;;;;;;37.53;25.27;;;;;;;6.38;75.45;101673.91;5067368;28;20033;-29
2021/04/20 01:18:10;;;;;;;38.47;25.70;;;;;;;6.41;74.82;101686.28;5072537;28;20020;-29
2021/04/20 01:20:35;;;;;;;36.40;24.33;;;;;;;6.46;75.33;101681.91;5065163;28;20134;-29
2021/04/20 01:23:00;;;;;;;34.60;22.60;;;;;;;6.48;74.95;101685.44;5063463;28;20094;-30
2021/04/20 01:25:26;;;;;;;32.42;22.70;;;;;;;6.35;75.28;101687.13;5043369;23;20046;-21
2021/04/20 01:27:51;;;;;;;31.80;21.83;;;;;;;6.24;75.46;101687.03;5001719;28;20122;-22
2021/04/20 01:30:17;;;;;;;34.10;22.63;;;;;;;6.26;75.73;101690.59;5003033;28;20030;-22
2021/04/20 01:32:43;;;;;;;34.08;23.27;;;;;;;6.21;75.71;101681.72;4996050;28;20160;-21
2021/04/20 01:35:10;;;;;;;33.13;22.08;;;;;;;6.17;75.21;101690.50;4987733;28;20042;-22
2021/04/20 01:37:35;;;;;;;35.38;23.55;;;;;;;6.12;74.98;101682.53;4982460;28;20031;-23
2021/04/20 01:40:01;;;;;;;33.42;23.35;;;;;;;6.13;74.99;101686.94;4982657;28;20277;-22
2021/04/20 01:42:26;;;;;;;35.67;23.48;;;;;;;6.13;75.30;101681.66;5004877;28;20041;-22
2021/04/20 01:44:51;;;;;;;35.95;23.30;;;;;;;6.19;75.47;101684.34;4985053;28;20279;-22
2021/04/20 01:47:17;;;;;;;31.80;21.73;;;;;;;6.14;75.00;101685.16;4990377;28;20037;-23
2021/04/20 01:49:42;;;;;;;33.85;22.73;;;;;;;6.08;75.25;101681.63;4999951;28;20404;-22
2021/04/20 01:52:07;;;;;;;31.33;21.58;;;;;;;6.08;75.01;101678.97;4993918;28;20045;-22
2021/04/20 01:54:33;;;;;;;31.15;21.45;;;;;;;6.01;74.94;101671.84;5001887;28;20406;-23
2021/04/20 01:56:59;;;;;;;34.08;22.83;;;;;;;6.00;75.53;101672.72;4993182;28;20032;-23
2021/04/20 01:59:24;;;;;;;35.88;23.63;;;;;;;6.09;75.90;101672.84;4983644;28;20233;-23
2021/04/20 02:01:49;;;;;;;33.45;21.85;;;;;;;6.08;75.64;101668.41;5000104;28;20033;-23
2021/04/20 02:04:15;;;;;;;31.20;21.23;;;;;;;6.11;75.54;101670.19;4999805;28;20041;-23
2021/04/20 02:06:40;;;;;;;31.73;20.92;;;;;;;6.08;75.61;101665.75;4978344;28;20537;-22
2021/04/20 02:09:06;;;;;;;30.40;20.40;;;;;;;6.16;75.69;101670.22;4981264;28;20039;-23
2021/04/20 02:11:31;;;;;;;31.30;20.73;;;;;;;6.00;75.23;101667.44;4987649;28;20046;-22
2021/04/20 02:13:59;;;;;;;32.08;20.63;;;;;;;6.04;75.38;101669.25;4978052;28;20022;-22
2021/04/20 02:16:25;;;;;;;31.75;21.58;;;;;;;5.91;74.91;101672.63;4990000;28;20029;-22
2021/04/20 02:18:55;;;;;;;29.85;20.70;;;;;;;5.80;75.03;101673.44;5004457;28;20053;-24
2021/04/20 02:21:21;;;;;;;31.33;21.33;;;;;;;5.77;74.99;101677.81;5004454;28;20049;-22
2021/04/20 02:23:46;;;;;;;40.08;25.23;;;;;;;5.72;75.13;101673.34;4987520;28;20030;-22
2021/04/20 02:26:13;;;;;;;36.33;23.98;;;;;;;5.68;75.07;101673.28;4982967;28;20133;-22
2021/04/20 02:28:38;;;;;;;36.05;23.95;;;;;;;5.64;75.60;101669.72;4995324;28;20088;-22
2021/04/20 02:31:07;;;;;;;37.20;24.70;;;;;;;5.67;75.12;101667.16;4984004;28;20461;-23
2021/04/20 02:33:32;;;;;;;38.65;24.55;;;;;;;5.73;75.78;101663.69;4990938;28;20027;-23
2021/04/20 02:36:01;;;;;;;38.03;24.95;;;;;;;5.69;75.36;101668.03;4982964;28;20064;-23
2021/04/20 02:38:26;;;;;;;37.35;24.92;;;;;;;5.69;75.42;101664.50;4988303;28;20492;-24
2021/04/20 02:40:53;;;;;;;37.75;26.45;;;;;;;5.72;75.76;101661.91;4990746;28;20038;-21
2021/04/20 02:43:19;;;;;;;40.83;25.58;;;;;;;5.56;75.36;101668.78;4988980;28;20089;-23
2021/04/20 02:45:44;;;;;;;40.63;26.83;;;;;;;5.55;75.24;101654.69;5000745;28;20046;-22
2021/04/20 02:48:09;;;;;;;41.85;27.42;;;;;;;5.54;75.51;101658.22;4985749;28;20384;-23
2021/04/20 02:50:35;;;;;;;42.90;27.73;;;;;;;5.52;75.62;101659.06;4982609;28;20038;-23
2021/04/20 02:53:00;;;;;;;47.20;28.08;;;;;;;5.57;75.54;101657.34;4984011;28;20377;-23
2021/04/20 02:55:26;;;;;;;42.00;27.40;;;;;;;5.67;75.52;101661.88;4991722;28;20406;-22
2021/04/20 02:57:56;;;;;;;41.78;27.08;;;;;;;5.72;75.39;101660.16;4993626;28;20537;-23
2021/04/20 03:00:22;;;;;;;45.50;28.33;;;;;;;5.63;75.17;101660.06;4975113;28;20118;-22
2021/04/20 03:02:51;;;;;;;45.03;28.42;;;;;;;5.56;75.09;101651.19;4994239;28;20036;-23
2021/04/20 03:05:17;;;;;;;47.78;29.13;;;;;;;5.55;75.79;101649.41;5003326;28;20045;-23
2021/04/20 03:07:43;;;;;;;40.53;26.77;;;;;;;5.49;75.51;101654.66;4978534;28;20309;-23
2021/04/20 03:10:09;;;;;;;44.22;26.50;;;;;;;5.48;76.14;101647.56;4984086;28;20038;-23
2021/04/20 03:12:35;;;;;;;58.28;25.10;;;;;;;5.42;76.16;101648.41;4991133;28;20018;-22
2021/04/20 03:15:00;;;;;;;49.22;22.77;;;;;;;5.32;76.63;101641.25;4991011;28;20032;-21
2021/04/20 03:17:27;;;;;;;44.13;19.52;;;;;;;5.37;76.60;101639.56;4990401;28;20484;-22
2021/04/20 03:19:52;;;;;;;104.00;21.40;;;;;;;5.45;76.75;101642.28;4997820;28;20092;-23
2021/04/20 03:22:18;;;;;;;50.33;18.77;;;;;;;5.34;77.49;101637.78;4994158;28;20473;-23
2021/04/20 03:25:05;;;;;;;50.28;15.70;;;;;;;5.35;76.20;101644.81;4990269;28;20033;-22
2021/04/20 03:27:30;;;;;;;81.32;16.80;;;;;;;5.24;76.13;101643.81;4978436;28;20048;-22
2021/04/20 03:29:55;;;;;;;75.43;17.50;;;;;;;4.99;76.54;101639.13;4980828;28;20030;-23
2021/04/20 03:32:21;;;;;;;46.17;15.88;;;;;;;4.97;76.57;101643.50;4983321;28;20040;-21
2021/04/20 03:34:50;;;;;;;29.67;14.55;;;;;;;4.97;76.76;101637.34;4978918;28;20418;-23
2021/04/20 03:37:19;;;;;;;27.70;14.43;;;;;;;5.08;76.65;101642.75;4988389;28;20042;-21
2021/04/20 03:39:46;;;;;;;38.58;16.42;;;;;;;5.08;76.34;101635.72;4978574;28;20508;-21
2021/04/20 03:42:18;;;;;;;28.33;16.40;;;;;;;5.15;76.52;101639.31;4999918;28;20042;-23
2021/04/20 03:44:45;;;;;;;25.05;15.60;;;;;;;5.15;76.33;101641.94;4998521;28;20036;-23
2021/04/20 03:47:18;;;;;;;27.77;16.98;;;;;;;5.04;76.41;101633.91;4995254;28;20038;-23
2021/04/20 03:49:44;;;;;;;47.88;17.83;;;;;;;5.01;76.13;101634.75;5015648;28;20045;-24
2021/04/20 03:52:16;;;;;;;81.30;21.88;;;;;;;5.22;77.20;101632.34;4995746;28;20248;-21
2021/04/20 03:54:41;;;;;;;95.45;21.70;;;;;;;5.11;77.67;101629.59;4993558;28;20030;-21
2021/04/20 03:57:07;;;;;;;65.75;19.42;;;;;;;5.11;77.07;101629.59;4977715;28;20046;-22
2021/04/20 03:59:32;;;;;;;85.45;20.35;;;;;;;5.09;77.02;101632.22;4980556;28;20046;-23
2021/04/20 04:01:58;;;;;;;171.95;24.70;;;;;;;5.04;77.77;101639.19;4963678;28;20057;-22
2021/04/20 04:04:24;;;;;;;157.40;24.73;;;;;;;4.93;78.23;101631.16;4994740;28;20042;-23
2021/04/20 04:06:49;;;;;;;178.77;26.73;;;;;;;4.92;78.31;101632.00;4980584;28;20121;-23
2021/04/20 04:09:17;;;;;;;155.70;24.95;;;;;;;4.93;78.99;101632.88;4980071;28;20524;-23
2021/04/20 04:11:48;;;;;;;107.45;24.00;;;;;;;4.90;79.05;101631.13;4987658;28;20120;-22
2021/04/20 04:14:14;;;;;;;149.63;22.17;;;;;;;4.88;77.29;101636.34;4986653;28;20041;-23
2021/04/20 04:16:39;;;;;;;113.65;23.13;;;;;;;4.69;77.63;101631.69;4977492;28;20487;-23
2021/04/20 04:19:04;;;;;;;132.55;23.90;;;;;;;4.50;78.06;101639.34;4980007;28;20495;-22
2021/04/20 04:21:35;;;;;;;107.55;22.73;;;;;;;4.58;78.53;101635.09;4980006;28;20052;-22
2021/04/20 04:24:04;;;;;;;106.28;22.83;;;;;;;4.62;78.44;101643.91;4995365;28;20527;-23
2021/04/20 04:26:29;;;;;;;102.15;23.58;;;;;;;4.66;78.08;101641.34;4979834;28;21038;-23
2021/04/20 04:28:58;;;;;;;96.40;23.80;;;;;;;4.66;78.00;101643.97;4995629;28;20033;-22
2021/04/20 04:31:23;;;;;;;136.93;27.75;;;;;;;4.72;78.71;101637.91;4981232;28;20125;-22
2021/04/20 04:33:49;;;;;;;123.25;27.40;;;;;;;4.70;78.78;101641.41;4979162;28;20495;-22
2021/04/20 04:36:14;;;;;;;89.07;25.42;;;;;;;4.74;78.01;101640.56;4982231;28;20034;-24
2021/04/20 04:38:40;;;;;;;112.60;25.98;;;;;;;4.71;78.05;101636.16;4980197;28;20093;-23
2021/04/20 04:41:06;;;;;;;69.13;24.90;;;;;;;4.61;77.64;101634.22;4976920;28;20058;-22
2021/04/20 04:43:31;;;;;;;75.78;24.38;;;;;;;4.74;77.94;101637.91;4983004;28;20033;-22
2021/04/20 04:45:57;;;;;;;111.93;25.52;;;;;;;4.72;77.99;101634.38;4976659;28;20049;-22
2021/04/20 04:48:22;;;;;;;76.50;23.23;;;;;;;4.83;78.26;101637.19;4978850;28;21156;-22
2021/04/20 04:50:47;;;;;;;75.07;25.98;;;;;;;4.93;78.07;101636.41;4982615;28;20037;-21
2021/04/20 04:53:13;;;;;;;41.72;21.75;;;;;;;4.68;77.47;101637.84;4990486;28;20400;-22
2021/04/20 04:55:38;;;;;;;53.58;20.45;;;;;;;4.61;77.80;101644.78;4985970;28;20060;-22
2021/04/20 04:58:03;;;;;;;58.50;20.42;;;;;;;4.69;77.36;101647.53;4988607;28;20018;-23
2021/04/20 05:00:29;;;;;;;83.60;21.38;;;;;;;4.29;77.96;101651.34;5002131;28;20043;-23
2021/04/20 05:02:55;;;;;;;49.75;20.67;;;;;;;4.50;78.50;101650.78;4983781;28;20502;-22
2021/04/20 05:05:20;;;;;;;60.10;19.35;;;;;;;4.50;77.36;101652.53;5000928;28;20029;-22
2021/04/20 05:07:45;;;;;;;67.43;20.92;;;;;;;4.42;78.01;101652.44;4970410;28;20038;-21
2021/04/20 05:10:13;;;;;;;37.58;19.35;;;;;;;4.59;78.21;101649.16;4986500;28;20570;-23
2021/04/20 05:12:38;;;;;;;34.22;18.42;;;;;;;4.66;77.91;101641.34;4987093;28;20068;-23
2021/04/20 05:15:15;;;;;;;73.72;20.60;;;;;;;4.61;78.03;101650.94;4985131;28;20026;-23
2021/04/20 05:17:41;;;;;;;64.78;20.15;;;;;;;4.63;77.99;101646.56;4988118;28;20026;-22
2021/04/20 05:20:09;;;;;;;78.57;20.95;;;;;;;4.56;78.34;101650.00;4994069;28;20033;-23
2021/04/20 05:22:35;;;;;;;69.40;18.00;;;;;;;4.54;78.30;101655.25;4986010;28;20594;-23
2021/04/20 05:25:15;;;;;;;71.05;19.52;;;;;;;4.60;78.16;101649.19;4987322;28;20037;-23
2021/04/20 05:27:40;;;;;;;50.75;19.50;;;;;;;4.62;78.67;101652.72;4985628;28;20041;-22
2021/04/20 05:30:06;;;;;;;60.28;19.38;;;;;;;4.64;78.69;101652.75;4987981;28;20048;-23
2021/04/20 05:32:32;;;;;;;72.35;21.17;;;;;;;4.65;78.94;101652.75;4983426;28;20567;-23
2021/04/20 05:35:01;;;;;;;86.70;20.67;;;;;;;4.54;79.60;101662.25;4981766;28;20038;-22
2021/04/20 05:37:46;;;;;;;52.53;19.50;;;;;;;4.85;78.96;101664.41;4997027;28;20030;-23
2021/04/20 05:40:16;;;;;;;66.75;20.33;;;;;;;4.86;78.38;101653.03;4987930;28;20030;-22
2021/04/20 05:42:41;;;;;;;75.28;20.42;;;;;;;4.68;78.59;101653.66;4985331;28;20053;-22
2021/04/20 05:45:07;;;;;;;74.65;21.35;;;;;;;4.72;79.53;101651.09;4994590;28;20104;-22
2021/04/20 05:47:33;;;;;;;55.08;20.27;;;;;;;4.83;79.02;101648.59;4977678;28;20026;-22
2021/04/20 05:50:02;;;;;;;72.38;19.85;;;;;;;4.84;78.61;101649.47;4987841;28;20045;-22
2021/04/20 05:52:28;;;;;;;61.30;19.95;;;;;;;4.76;79.20;101657.28;4992219;28;20104;-23
2021/04/20 05:54:57;;;;;;;42.05;19.30;;;;;;;5.02;78.46;101654.09;4999225;28;20478;-22
2021/04/20 05:57:22;;;;;;;40.97;18.13;;;;;;;5.09;78.17;101661.22;4987963;28;20076;-22
2021/04/20 05:59:47;;;;;;;55.90;20.52;;;;;;;5.02;78.57;101651.47;4979238;28;20124;-22
2021/04/20 06:02:14;;;;;;;63.47;20.02;;;;;;;4.98;79.11;101654.91;4990218;28;20042;-23
2021/04/20 06:04:39;;;;;;;92.55;22.45;;;;;;;5.03;79.35;101658.50;4988116;28;20026;-22
2021/04/20 06:07:04;;;;;;;86.70;22.38;;;;;;;5.04;79.85;101660.28;4977246;28;20018;-22
2021/04/20 06:09:30;;;;;;;105.28;24.52;;;;;;;5.04;80.02;101665.56;4986330;28;20022;-23
2021/04/20 06:11:56;;;;;;;48.25;20.92;;;;;;;5.10;79.56;101665.66;4986177;28;20491;-21
2021/04/20 06:14:21;;;;;;;80.57;20.50;;;;;;;5.09;79.30;101668.25;4996147;28;20444;-22
2021/04/20 06:16:47;;;;;;;93.00;22.55;;;;;;;5.10;79.28;101668.28;4988670;28;20087;-23
2021/04/20 06:19:12;;;;;;;81.78;23.63;;;;;;;5.16;80.04;101667.44;4997718;28;20365;-22
2021/04/20 06:21:37;;;;;;;74.47;22.65;;;;;;;5.27;79.94;101672.00;5002287;28;20022;-22
2021/04/20 06:24:04;;;;;;;68.90;23.05;;;;;;;5.30;79.89;101662.34;4984798;28;20463;-21
2021/04/20 06:26:33;;;;;;;73.43;23.05;;;;;;;5.31;79.94;101665.84;4968481;28;20440;-21
2021/04/20 06:28:59;;;;;;;76.85;23.08;;;;;;;5.45;79.79;101666.03;4984902;28;20038;-21
2021/04/20 06:31:24;;;;;;;60.78;22.15;;;;;;;5.46;80.05;101673.97;4981576;28;20039;-22
2021/04/20 06:33:49;;;;;;;56.65;18.95;;;;;;;5.83;79.46;101668.16;4980807;28;20066;-23
2021/04/20 06:36:15;;;;;;;51.85;19.00;;;;;;;5.97;78.98;101678.84;4994435;28;20121;-22
2021/04/20 06:38:40;;;;;;;73.60;24.13;;;;;;;5.79;78.67;101670.75;4982016;28;20105;-23
2021/04/20 06:41:07;;;;;;;88.70;24.65;;;;;;;5.73;78.94;101663.69;4974712;28;20051;-23
2021/04/20 06:43:47;;;;;;;88.78;25.90;;;;;;;5.75;79.76;101672.47;4984684;28;20026;-22
2021/04/20 06:46:19;;;;;;;129.32;28.30;;;;;;;5.41;81.10;101673.03;4986707;28;20045;-23
2021/04/20 06:48:49;;;;;;;170.02;31.77;;;;;;;5.67;80.94;101671.53;4976749;28;20109;-23
2021/04/20 06:51:22;;;;;;;89.78;27.30;;;;;;;5.85;80.32;101674.34;4990694;28;20112;-24
2021/04/20 06:53:52;;;;;;;99.50;28.83;;;;;;;5.86;80.94;101672.56;4973691;28;20041;-23
2021/04/20 06:56:36;;;;;;;80.43;29.48;;;;;;;6.07;80.20;101673.69;4990613;28;20026;-24
2021/04/20 06:59:23;;;;;;;77.30;26.88;;;;;;;6.06;79.98;101674.56;4976418;28;20072;-25
2021/04/20 07:01:54;;;;;;;65.03;28.45;;;;;;;6.15;79.87;101674.66;4979168;28;20034;-24
2021/04/20 07:04:26;;;;;;;76.55;31.38;;;;;;;6.16;79.59;101676.41;4974113;28;20857;-23
2021/04/20 07:07:06;;;;;;;86.18;32.05;;;;;;;6.21;80.17;101674.66;4974291;28;20149;-24
2021/04/20 07:09:32;;;;;;;84.05;40.00;;;;;;;6.29;80.43;101674.75;4992472;28;20062;-26
2021/04/20 07:11:58;;;;;;;86.78;41.45;;;;;;;6.38;80.18;101678.31;4994803;28;20476;-23
2021/04/20 07:14:34;;;;;;;77.18;40.33;;;;;;;6.45;80.23;101678.38;4984932;28;20038;-25
2021/04/20 07:17:11;;;;;;;53.50;31.00;;;;;;;6.74;80.54;101668.88;4997480;28;20042;-23
2021/04/20 07:20:01;;;;;;;60.30;33.90;;;;;;;6.60;79.85;101678.47;4978404;28;20022;-24
2021/04/20 07:22:36;;;;;;;48.47;29.77;;;;;;;6.75;79.85;101678.56;4975868;28;20030;-24
2021/04/20 07:25:05;;;;;;;47.90;28.48;;;;;;;6.78;79.95;101683.00;4974780;28;20023;-25
2021/04/20 07:28:02;;;;;;;43.78;26.65;;;;;;;6.76;79.77;101680.31;4975788;28;20026;-25
2021/04/20 07:30:42;;;;;;;46.15;27.98;;;;;;;6.91;80.08;101678.66;4977878;28;20077;-24
2021/04/20 07:33:18;;;;;;;50.88;32.58;;;;;;;7.00;80.43;101673.38;4979699;28;20041;-24
2021/04/20 07:36:11;;;;;;;145.13;93.43;;;;;;;7.11;79.92;101684.00;4976957;28;20044;-24
2021/04/20 07:38:40;;;;;;;169.38;93.65;;;;;;;7.12;80.25;101676.97;4979066;28;20232;-25
2021/04/20 07:41:10;;;;;;;100.88;59.15;;;;;;;7.19;80.24;101683.19;4978913;28;20034;-25
2021/04/20 07:44:17;;;;;;;54.95;35.20;;;;;;;7.13;80.90;101679.59;4979102;28;20622;-25
2021/04/20 07:46:52;;;;;;;69.10;34.13;;;;;;;7.26;80.51;101683.19;4993812;28;20423;-24
2021/04/20 07:49:40;;;;;;;59.50;35.35;;;;;;;7.35;80.39;101684.97;4979343;28;20381;-25
2021/04/20 07:52:06;;;;;;;57.10;35.78;;;;;;;7.46;80.47;101690.34;4992517;28;20030;-24
2021/04/20 07:54:33;;;;;;;98.50;35.50;;;;;;;7.44;79.85;101686.78;4993072;28;21210;-25
2021/04/20 07:57:03;;;;;;;63.00;35.58;;;;;;;7.56;79.94;101682.38;4977790;28;20037;-25
2021/04/20 07:59:32;;;;;;;72.10;36.72;;;;;;;7.54;80.03;101687.69;4981550;28;20138;-24
2021/04/20 08:02:00;;;;;;;57.17;37.15;;;;;;;7.62;80.93;101687.72;4978053;28;20569;-25
2021/04/20 08:04:52;;;;;;;56.08;34.72;;;;;;;7.78;80.79;101682.44;4993925;28;20125;-25
2021/04/20 08:07:21;;;;;;;60.75;37.08;;;;;;;7.79;80.50;101682.44;4975912;28;20756;-24
2021/04/20 08:09:48;;;;;;;64.47;37.22;;;;;;;7.90;80.33;101677.16;4986052;28;20427;-25
2021/04/20 08:12:17;;;;;;;69.20;39.80;;;;;;;7.92;80.39;101678.06;4963261;28;20038;-23
2021/04/20 08:14:49;;;;;;;67.03;39.38;;;;;;;7.89;80.55;101680.69;4991075;28;20037;-27
2021/04/20 08:17:53;;;;;;;68.13;40.13;;;;;;;8.05;80.32;101678.06;4977689;28;20730;-24
2021/04/20 08:20:21;;;;;;;74.75;41.63;;;;;;;8.23;80.21;101675.41;4976208;28;20030;-25
2021/04/20 08:22:47;;;;;;;75.60;41.97;;;;;;;8.30;79.76;101668.31;4979496;28;20054;-24
2021/04/20 08:25:21;;;;;;;75.03;41.78;;;;;;;8.40;80.12;101666.53;4979729;28;20046;-23
2021/04/20 08:28:07;;;;;;;73.45;42.78;;;;;;;8.48;80.27;101664.75;4996192;28;20125;-25
2021/04/20 08:30:55;;;;;;;73.82;41.70;;;;;;;8.57;80.43;101668.28;4977003;28;20029;-24
2021/04/20 08:33:31;;;;;;;82.10;43.38;;;;;;;8.74;80.25;101659.41;4983519;28;20066;-26
2021/04/20 08:35:59;;;;;;;73.85;41.35;;;;;;;8.84;79.59;101664.69;4976501;28;20041;-25
2021/04/20 08:39:02;;;;;;;82.60;43.90;;;;;;;8.87;79.67;101655.84;4992950;28;20018;-24
2021/04/20 08:41:42;;;;;;;79.45;42.35;;;;;;;8.94;79.55;101656.69;4978728;28;20034;-24
2021/04/20 08:44:28;;;;;;;89.88;45.78;;;;;;;8.99;80.65;101649.63;4971992;28;20034;-25
2021/04/20 08:47:01;;;;;;;91.43;44.03;;;;;;;9.09;80.38;101655.75;4995047;28;20292;-26
2021/04/20 08:49:53;;;;;;;86.10;45.05;;;;;;;9.23;79.82;101657.47;4979197;28;20131;-24
2021/04/20 08:52:43;;;;;;;75.00;40.90;;;;;;;9.27;78.45;101654.78;4989429;28;20038;-25
2021/04/20 08:55:18;;;;;;;80.05;41.55;;;;;;;9.37;78.80;101652.97;4978389;28;20030;-24
2021/04/20 08:57:53;;;;;;;83.65;43.42;;;;;;;9.46;78.16;101652.00;4990701;28;20633;-25
2021/04/20 09:00:28;;;;;;;86.18;42.88;;;;;;;9.71;77.54;101651.84;4986405;28;20034;-24
2021/04/20 09:03:17;;;;;;;82.80;43.05;;;;;;;9.78;77.42;101650.91;4986809;28;20030;-25
2021/04/20 09:06:04;;;;;;;82.93;41.75;;;;;;;9.94;77.16;101649.91;4982059;28;20041;-25
2021/04/20 09:08:48;;;;;;;76.78;40.50;;;;;;;9.76;76.98;101655.38;4982259;28;20026;-24
2021/04/20 09:11:27;;;;;;;72.43;40.20;;;;;;;9.98;75.39;101652.53;4975927;28;20031;-25
2021/04/20 09:14:12;;;;;;;73.97;39.83;;;;;;;10.05;75.94;101649.81;4982312;28;20050;-25
2021/04/20 09:16:44;;;;;;;72.90;40.20;;;;;;;10.21;75.98;101650.56;4979744;28;20043;-26
2021/04/20 09:19:16;;;;;;;80.80;40.67;;;;;;;10.30;76.37;101650.47;4979140;28;20038;-26
2021/04/20 09:22:00;;;;;;;73.53;38.55;;;;;;;10.37;74.68;101651.31;4959892;28;20030;-26
2021/04/20 09:24:25;;;;;;;74.25;37.08;;;;;;;10.39;74.55;101647.72;4977410;28;20034;-25
2021/04/20 09:27:06;;;;;;;64.95;35.20;;;;;;;10.45;72.15;101649.44;4976050;28;20036;-25
2021/04/20 09:29:36;;;;;;;65.18;35.22;;;;;;;10.55;72.27;101654.69;4992808;28;20038;-25
2021/04/20 09:32:06;;;;;;;63.63;34.72;;;;;;;10.59;71.12;101652.00;4985242;28;20033;-24
2021/04/20 09:34:34;;;;;;;64.97;34.38;;;;;;;10.63;71.12;101645.72;4978288;28;20090;-24
2021/04/20 09:37:01;;;;;;;64.65;35.53;;;;;;;10.57;70.29;101652.91;4972555;28;20037;-25
2021/04/20 09:39:26;;;;;;;67.18;34.97;;;;;;;10.71;70.45;101648.31;4977196;28;20537;-24
2021/04/20 09:41:52;;;;;;;66.45;34.70;;;;;;;10.68;68.56;101652.78;4974071;28;20046;-25
2021/04/20 09:44:34;;;;;;;65.35;35.83;;;;;;;10.79;69.95;101640.25;4983446;28;20568;-26
2021/04/20 09:47:21;;;;;;;51.20;27.15;;;;;;;10.71;66.77;101653.63;4978893;28;20026;-24
2021/04/20 09:50:12;;;;;;;53.28;27.58;;;;;;;11.03;68.48;101650.59;4978916;28;20101;-25
2021/04/20 09:53:14;;;;;;;55.38;27.20;;;;;;;11.96;68.84;101635.00;4975505;28;20077;-24
2021/04/20 09:55:45;;;;;;;58.63;31.08;;;;;;;11.90;65.64;101640.47;4977672;28;20161;-25
2021/04/20 09:58:11;;;;;;;57.65;33.58;;;;;;;12.31;64.43;101632.66;4975990;28;20121;-24
2021/04/20 10:00:39;;;;;;;58.42;31.83;;;;;;;11.81;65.99;101641.50;4978047;28;20030;-25
2021/04/20 10:03:26;;;;;;;56.80;31.00;;;;;;;11.52;66.67;101641.03;4978712;28;20034;-24
2021/04/20 10:05:55;;;;;;;55.33;29.30;;;;;;;11.24;64.98;101644.09;4974912;28;20049;-24
2021/04/20 10:08:36;;;;;;;44.75;22.52;;;;;;;12.50;66.06;101630.53;4979750;28;20513;-25
2021/04/20 10:11:12;;;;;;;46.00;26.05;;;;;;;13.30;62.28;101628.91;4971309;28;20527;-26
2021/04/20 10:13:56;;;;;;;54.17;30.85;;;;;;;12.55;63.86;101630.44;4977343;28;20046;-25
2021/04/20 10:16:24;;;;;;;46.90;24.80;;;;;;;11.81;65.15;101633.50;4977621;28;20026;-26
2021/04/20 10:19:03;;;;;;;53.72;31.13;;;;;;;11.77;66.90;101637.13;4978705;28;20014;-25
2021/04/20 10:21:54;;;;;;;50.33;27.65;;;;;;;12.40;66.60;101628.97;4978382;28;20034;-24
2021/04/20 10:24:22;;;;;;;51.17;27.98;;;;;;;13.30;61.70;101623.56;4979349;28;20030;-26
2021/04/20 10:27:01;;;;;;;33.72;18.02;;;;;;;12.90;63.02;101627.94;4977128;28;20080;-26
2021/04/20 10:29:52;;;;;;;47.80;25.90;;;;;;;12.58;61.98;101621.50;4976302;28;20121;-26
2021/04/20 10:32:31;;;;;;;33.30;20.33;;;;;;;12.65;60.04;101617.78;4978178;28;20030;-26
2021/04/20 10:34:57;;;;;;;35.05;19.55;;;;;;;12.83;59.16;101616.53;4990148;28;20096;-26
2021/04/20 10:37:39;;;;;;;31.38;19.77;;;;;;;12.71;59.47;101617.69;4977610;28;20042;-26
2021/04/20 10:40:12;;;;;;;39.78;22.05;;;;;;;12.77;59.67;101612.19;4975816;28;20062;-26
2021/04/20 10:42:37;;;;;;;39.95;22.60;;;;;;;12.48;60.89;101616.34;4991374;28;20057;-25
2021/04/20 10:45:07;;;;;;;31.85;19.27;;;;;;;12.38;59.62;101617.44;4959360;28;20038;-25
2021/04/20 10:47:32;;;;;;;31.85;18.23;;;;;;;12.35;58.73;101614.81;4975326;28;20408;-25
2021/04/20 10:49:58;;;;;;;36.30;20.92;;;;;;;12.43;61.05;101615.56;4976398;28;20032;-25
2021/04/20 10:52:25;;;;;;;30.73;17.95;;;;;;;13.01;60.22;101612.59;4977064;28;20030;-26
2021/04/20 10:54:51;;;;;;;40.17;23.75;;;;;;;12.83;60.34;101604.97;4959384;28;20108;-25
2021/04/20 10:57:16;;;;;;;33.10;20.70;;;;;;;13.72;56.75;101598.53;4977194;28;20042;-26
2021/04/20 10:59:43;;;;;;;33.50;21.15;;;;;;;12.96;58.61;101595.78;4975969;28;20515;-25
2021/04/20 11:02:20;;;;;;;30.17;16.65;;;;;;;13.04;58.92;101594.75;4970592;28;20038;-25
2021/04/20 11:04:45;;;;;;;33.33;18.10;;;;;;;13.15;58.57;101594.50;4976842;28;20038;-26
2021/04/20 11:07:20;;;;;;;32.50;18.48;;;;;;;12.94;57.72;101592.28;4975319;28;20499;-26
2021/04/20 11:09:46;;;;;;;31.35;18.90;;;;;;;12.92;57.73;101594.09;4963765;28;20084;-24
2021/04/20 11:12:12;;;;;;;28.73;15.60;;;;;;;12.83;57.64;101596.97;4978812;28;20027;-24
2021/04/20 11:14:39;;;;;;;26.15;14.52;;;;;;;13.08;57.09;101593.75;4980631;28;20034;-26
2021/04/20 11:17:05;;;;;;;23.52;14.23;;;;;;;13.53;57.08;101581.16;4981182;28;20567;-25
2021/04/20 11:19:31;;;;;;;25.58;15.73;;;;;;;13.10;57.11;101591.94;4981469;28;20072;-26
2021/04/20 11:21:56;;;;;;;25.85;15.45;;;;;;;12.86;56.91;101581.75;4981455;28;20038;-26
2021/04/20 11:24:22;;;;;;;22.98;14.13;;;;;;;12.85;57.21;101589.78;4979344;28;20546;-25
2021/04/20 11:26:54;;;;;;;26.65;15.27;;;;;;;12.76;58.03;101583.75;4977463;28;20034;-25
2021/04/20 11:29:24;;;;;;;18.05;9.82;;;;;;;13.01;58.45;101583.22;4980032;28;20023;-25